Time;durP1;ratioP1;P1;durP2;ratioP2;P2;SDS_P1;SDS_P2;PMS_P1;PMS_P2;Temp;Humidity;BMP_temperature;BMP_pressure;BME280_temperature;BME280_humidity;BME280_pressure;Samples;Min_cycle;Max_cycle;Signal;HPM_P1;HPM_P2
2020/12/26 00:01:11;;;;;;;11.70;7.80;;;;;;;9.86;59.38;94620.44;5050961;28;20497;-62
2020/12/26 00:03:38;;;;;;;12.23;6.97;;;;;;;10.14;59.38;94640.94;5050397;28;20443;-64
2020/12/26 00:06:04;;;;;;;12.93;7.70;;;;;;;10.13;59.25;94643.81;5051019;28;20431;-63
2020/12/26 00:08:32;;;;;;;12.27;7.37;;;;;;;10.21;59.22;94643.31;5050687;28;20438;-64
2020/12/26 00:10:59;;;;;;;13.10;7.27;;;;;;;10.21;58.86;94653.78;5050512;28;20525;-64
2020/12/26 00:13:25;;;;;;;13.33;7.70;;;;;;;10.24;58.82;94658.50;5050609;28;20443;-63
2020/12/26 00:15:52;;;;;;;12.67;7.03;;;;;;;10.27;58.58;94644.13;5050241;28;20442;-62
2020/12/26 00:18:19;;;;;;;10.23;6.43;;;;;;;10.18;58.72;94644.63;5050217;28;20485;-61
2020/12/26 00:20:45;;;;;;;12.77;7.60;;;;;;;10.16;59.63;94651.94;5050121;28;20415;-63
2020/12/26 00:23:12;;;;;;;11.37;7.60;;;;;;;10.07;59.90;94657.94;5050478;28;20536;-63
2020/12/26 00:25:40;;;;;;;13.70;8.17;;;;;;;10.13;59.57;94662.94;5050171;28;20453;-63
2020/12/26 00:28:07;;;;;;;11.87;8.00;;;;;;;10.12;58.90;94660.59;5049332;28;20446;-63
2020/12/26 00:30:34;;;;;;;13.60;8.50;;;;;;;10.08;59.11;94656.88;5050146;28;20514;-62
2020/12/26 00:33:00;;;;;;;15.20;9.47;;;;;;;10.04;59.73;94653.19;5049930;28;20431;-62
2020/12/26 00:35:27;;;;;;;16.73;9.33;;;;;;;9.72;60.61;94676.09;5053303;28;20515;-62
2020/12/26 00:37:53;;;;;;;15.63;9.13;;;;;;;9.76;61.54;94666.72;5051812;28;20908;-62
2020/12/26 00:40:19;;;;;;;17.97;9.10;;;;;;;9.70;61.92;94678.97;5049676;28;20502;-62
2020/12/26 00:42:46;;;;;;;12.27;8.10;;;;;;;9.74;60.89;94687.09;5049880;28;20443;-62
2020/12/26 00:45:12;;;;;;;12.77;7.87;;;;;;;9.68;61.33;94669.78;5049725;28;20957;-62
2020/12/26 00:47:38;;;;;;;14.30;8.03;;;;;;;9.62;61.88;94662.97;5050525;28;20435;-63
2020/12/26 00:50:06;;;;;;;10.50;7.70;;;;;;;9.32;62.98;94678.50;5050304;28;20817;-63
2020/12/26 00:52:34;;;;;;;12.53;8.13;;;;;;;9.00;65.59;94671.50;5048609;28;20814;-61
2020/12/26 00:55:01;;;;;;;13.10;8.23;;;;;;;9.49;63.87;94655.59;5048894;28;20896;-62
2020/12/26 00:57:27;;;;;;;12.47;8.07;;;;;;;9.69;63.10;94672.16;5049039;28;20474;-63
2020/12/26 00:59:54;;;;;;;12.40;8.30;;;;;;;9.71;63.57;94679.75;5048388;28;20454;-62
2020/12/26 01:02:22;;;;;;;14.17;8.03;;;;;;;9.75;63.93;94654.66;5048257;28;20451;-62
2020/12/26 01:04:53;;;;;;;14.57;8.67;;;;;;;9.82;63.53;94655.19;5049306;28;20471;-62
2020/12/26 01:07:19;;;;;;;11.83;8.03;;;;;;;9.52;64.98;94681.22;5049285;28;20489;-64
2020/12/26 01:09:45;;;;;;;14.27;8.57;;;;;;;9.54;65.48;94679.16;5048979;28;20427;-63
2020/12/26 01:12:12;;;;;;;13.73;8.37;;;;;;;9.67;64.97;94673.47;5049622;28;20969;-62
2020/12/26 01:14:42;;;;;;;11.83;8.03;;;;;;;9.19;66.57;94693.59;5048891;28;20593;-64
2020/12/26 01:17:11;;;;;;;13.23;7.50;;;;;;;9.23;67.90;94678.97;5049233;28;20504;-62
2020/12/26 01:19:56;;;;;;;12.93;7.60;;;;;;;9.52;67.03;94655.06;5049572;28;21031;-61
2020/12/26 01:22:22;;;;;;;13.37;8.07;;;;;;;9.17;68.26;94664.31;5049454;28;20450;-63
2020/12/26 01:24:48;;;;;;;11.47;8.00;;;;;;;9.17;68.34;94672.13;5049103;28;20973;-63
2020/12/26 01:27:15;;;;;;;13.47;8.57;;;;;;;9.49;68.55;94650.38;5049241;28;20807;-63
2020/12/26 01:29:46;;;;;;;11.57;7.77;;;;;;;9.63;67.44;94661.94;5048923;28;20427;-63
2020/12/26 01:32:13;;;;;;;13.73;8.10;;;;;;;9.51;67.55;94643.03;5049339;28;20438;-62
2020/12/26 01:34:39;;;;;;;11.40;7.97;;;;;;;9.72;67.24;94635.03;5048584;28;20475;-63
2020/12/26 01:37:05;;;;;;;13.37;7.40;;;;;;;9.47;67.61;94657.66;5049146;28;20496;-62
2020/12/26 01:39:32;;;;;;;16.00;7.50;;;;;;;9.66;67.88;94650.94;5047929;28;20480;-62
2020/12/26 01:41:58;;;;;;;11.00;7.17;;;;;;;9.81;67.22;94648.41;5049401;28;20442;-63
2020/12/26 01:44:25;;;;;;;11.53;7.00;;;;;;;9.83;67.24;94628.00;5048535;28;20492;-62
2020/12/26 01:46:52;;;;;;;11.57;6.93;;;;;;;9.95;66.22;94628.56;5049319;28;20446;-62
2020/12/26 01:49:23;;;;;;;9.83;6.63;;;;;;;9.87;66.91;94629.06;5048754;28;20442;-62
2020/12/26 01:51:50;;;;;;;12.13;7.40;;;;;;;9.81;67.11;94623.03;5049446;28;20435;-63
2020/12/26 01:54:17;;;;;;;12.73;7.90;;;;;;;9.79;67.60;94621.72;5048276;28;20481;-63
2020/12/26 01:56:45;;;;;;;9.67;6.57;;;;;;;9.48;68.42;94638.31;5049378;28;20454;-64
2020/12/26 01:59:12;;;;;;;12.87;7.70;;;;;;;9.65;67.84;94623.22;5048414;28;20482;-62
2020/12/26 02:01:43;;;;;;;12.90;7.60;;;;;;;9.68;67.11;94618.28;5048860;28;20657;-62
2020/12/26 02:04:11;;;;;;;12.57;8.00;;;;;;;9.68;66.98;94630.56;5048247;28;20451;-63
2020/12/26 02:06:48;;;;;;;11.37;7.53;;;;;;;9.57;68.10;94628.94;5048917;28;20546;-62
2020/12/26 02:09:16;;;;;;;10.67;7.27;;;;;;;9.55;67.40;94623.16;5049129;28;20469;-62
2020/12/26 02:11:43;;;;;;;12.37;7.73;;;;;;;9.46;68.26;94637.78;5049104;28;20996;-62
2020/12/26 02:14:09;;;;;;;11.90;7.80;;;;;;;9.13;69.24;94637.09;5048016;28;20537;-63
2020/12/26 02:16:47;;;;;;;11.40;7.57;;;;;;;9.36;67.77;94625.44;5048923;28;20522;-63
2020/12/26 02:19:16;;;;;;;12.10;7.77;;;;;;;9.45;67.35;94628.38;5048550;28;20521;-63
2020/12/26 02:21:43;;;;;;;10.50;7.13;;;;;;;9.47;67.96;94632.28;5049189;28;20457;-64
2020/12/26 02:24:10;;;;;;;12.67;7.87;;;;;;;9.44;67.38;94621.53;5048054;28;20451;-63
2020/12/26 02:26:38;;;;;;;10.13;7.43;;;;;;;9.63;67.45;94627.94;5049078;28;20451;-63
2020/12/26 02:29:05;;;;;;;11.40;7.57;;;;;;;9.56;67.21;94612.44;5048239;28;20477;-62
2020/12/26 02:31:34;;;;;;;11.47;7.93;;;;;;;9.59;66.80;94639.94;5048915;28;20533;-62
2020/12/26 02:34:02;;;;;;;13.63;8.33;;;;;;;9.62;66.17;94639.41;5047984;28;20506;-62
2020/12/26 02:36:28;;;;;;;15.20;9.30;;;;;;;9.62;66.60;94639.41;5048961;28;20427;-63
2020/12/26 02:38:55;;;;;;;12.70;8.20;;;;;;;9.62;66.04;94628.94;5048312;28;20548;-63
2020/12/26 02:41:21;;;;;;;14.30;8.60;;;;;;;9.65;66.31;94636.31;5048942;28;20862;-62
2020/12/26 02:43:49;;;;;;;13.17;8.70;;;;;;;9.40;67.19;94636.19;5048206;28;20442;-62
2020/12/26 02:46:15;;;;;;;13.83;9.00;;;;;;;9.44;66.81;94611.09;5048997;28;20447;-62
2020/12/26 02:48:42;;;;;;;13.07;8.40;;;;;;;9.22;67.26;94634.78;5048395;28;20470;-65
2020/12/26 02:51:09;;;;;;;14.53;8.67;;;;;;;9.31;68.24;94642.91;5049941;28;20537;-63
2020/12/26 02:53:36;;;;;;;14.97;9.60;;;;;;;9.31;68.10;94645.53;5051261;28;20453;-61
2020/12/26 02:56:03;;;;;;;15.93;9.33;;;;;;;9.37;68.82;94647.94;5052155;28;20527;-62
2020/12/26 02:58:29;;;;;;;15.67;9.90;;;;;;;9.39;69.59;94655.53;5052351;28;20482;-64
2020/12/26 03:00:56;;;;;;;18.43;11.50;;;;;;;9.21;70.85;94667.97;5051958;28;20446;-62
2020/12/26 03:03:23;;;;;;;14.47;10.50;;;;;;;9.12;71.95;94677.31;5052517;28;20442;-64
2020/12/26 03:05:49;;;;;;;19.97;11.10;;;;;;;9.11;72.37;94667.91;5051357;28;20423;-63
2020/12/26 03:08:16;;;;;;;19.10;11.70;;;;;;;9.25;71.29;94676.13;5052394;28;20453;-62
2020/12/26 03:10:42;;;;;;;16.33;11.27;;;;;;;9.13;72.41;94678.91;5051412;28;20466;-63
2020/12/26 03:13:08;;;;;;;14.73;10.60;;;;;;;9.31;71.79;94663.84;5051875;28;20439;-62
2020/12/26 03:15:36;;;;;;;13.00;10.10;;;;;;;9.22;71.40;94671.38;5051159;28;20839;-63
2020/12/26 03:18:02;;;;;;;14.03;11.03;;;;;;;9.17;72.05;94653.84;5052212;28;20489;-64
2020/12/26 03:20:29;;;;;;;14.43;11.10;;;;;;;9.25;71.80;94654.41;5051228;28;20508;-62
2020/12/26 03:22:56;;;;;;;12.73;9.83;;;;;;;9.23;72.17;94661.72;5051520;28;20815;-62
2020/12/26 03:25:23;;;;;;;13.80;10.23;;;;;;;9.16;72.22;94665.31;5051361;28;20530;-62
2020/12/26 03:27:49;;;;;;;13.67;9.80;;;;;;;9.15;71.46;94676.81;5051702;28;20545;-63
2020/12/26 03:30:16;;;;;;;12.43;10.53;;;;;;;8.97;72.31;94652.91;5051547;28;20971;-65
2020/12/26 03:32:42;;;;;;;11.70;8.90;;;;;;;8.82;72.68;94677.09;5051578;28;20952;-64
2020/12/26 03:35:09;;;;;;;11.83;9.10;;;;;;;8.75;73.37;94680.94;5050381;28;20481;-62
2020/12/26 03:37:37;;;;;;;11.53;9.90;;;;;;;8.85;73.03;94676.59;5051357;28;20439;-62
2020/12/26 03:40:08;;;;;;;11.07;9.17;;;;;;;8.65;73.21;94671.19;5050885;28;20530;-63
2020/12/26 03:42:36;;;;;;;11.53;9.27;;;;;;;8.73;73.31;94659.50;5051945;28;20936;-61
2020/12/26 03:45:03;;;;;;;12.93;9.60;;;;;;;8.89;72.26;94667.22;5060718;28;20481;-61
2020/12/26 03:47:30;;;;;;;12.73;9.03;;;;;;;8.82;72.75;94671.88;5051398;28;20435;-61
2020/12/26 03:49:56;;;;;;;10.83;8.10;;;;;;;8.87;72.27;94673.72;5050672;28;20541;-62
2020/12/26 03:52:23;;;;;;;10.83;8.10;;;;;;;8.95;71.02;94658.41;5051202;28;20442;-61
2020/12/26 03:54:49;;;;;;;7.90;6.87;;;;;;;9.02;70.92;94661.56;5050224;28;21035;-63
2020/12/26 03:57:16;;;;;;;7.97;6.80;;;;;;;8.98;71.14;94646.63;5049633;28;20809;-63
2020/12/26 03:59:42;;;;;;;7.97;6.57;;;;;;;8.99;70.63;94661.28;5050710;28;20479;-61
2020/12/26 04:02:09;;;;;;;8.47;6.13;;;;;;;9.04;70.47;94658.72;5051033;28;20814;-61
2020/12/26 04:04:36;;;;;;;6.17;5.50;;;;;;;8.91;70.52;94649.47;5050570;28;20482;-62
2020/12/26 04:07:03;;;;;;;6.37;5.37;;;;;;;8.95;70.65;94650.56;5050876;28;20445;-63
2020/12/26 04:09:30;;;;;;;7.03;6.03;;;;;;;8.94;70.40;94659.41;5050439;28;20443;-62
2020/12/26 04:11:57;;;;;;;7.43;6.10;;;;;;;9.03;70.15;94662.38;5050669;28;20446;-62
2020/12/26 04:14:23;;;;;;;8.10;6.23;;;;;;;8.93;70.01;94652.63;5050471;28;20944;-62
2020/12/26 04:16:57;;;;;;;8.50;6.10;;;;;;;9.12;69.74;94666.09;5051010;28;20443;-63
2020/12/26 04:19:25;;;;;;;7.20;6.27;;;;;;;8.86;70.62;94666.94;5049805;28;20489;-62
2020/12/26 04:21:55;;;;;;;8.27;6.50;;;;;;;9.00;70.22;94658.41;5050697;28;20439;-62
2020/12/26 04:24:23;;;;;;;7.10;6.07;;;;;;;8.80;71.24;94673.16;5050535;28;20867;-63
2020/12/26 04:26:51;;;;;;;7.60;5.83;;;;;;;8.72;71.41;94666.56;5050375;28;20447;-63
2020/12/26 04:29:21;;;;;;;8.43;6.47;;;;;;;8.89;71.05;94659.38;5049954;28;20777;-63
2020/12/26 04:31:50;;;;;;;9.67;6.53;;;;;;;8.93;70.99;94673.53;5050125;28;20450;-62
2020/12/26 04:34:17;;;;;;;9.17;6.13;;;;;;;8.86;70.40;94667.72;5049558;28;20467;-64
2020/12/26 04:36:44;;;;;;;8.20;6.63;;;;;;;8.96;70.21;94659.94;5050565;28;20470;-63
2020/12/26 04:39:10;;;;;;;8.87;6.97;;;;;;;8.53;71.66;94660.13;5049785;28;20823;-63
2020/12/26 04:41:36;;;;;;;8.03;6.80;;;;;;;8.88;71.24;94649.19;5049942;28;20561;-62
2020/12/26 04:44:03;;;;;;;8.47;6.70;;;;;;;9.02;70.52;94663.38;5050383;28;20438;-63
2020/12/26 04:46:34;;;;;;;9.10;6.50;;;;;;;9.11;69.63;94661.88;5050108;28;20530;-62
2020/12/26 04:49:05;;;;;;;9.50;7.13;;;;;;;9.16;69.31;94638.38;5049410;28;20551;-63
2020/12/26 04:51:35;;;;;;;9.57;6.80;;;;;;;9.07;69.66;94668.66;5050348;28;20454;-62
2020/12/26 04:54:08;;;;;;;10.57;7.23;;;;;;;9.16;69.78;94664.53;5049740;28;20447;-61
2020/12/26 04:56:42;;;;;;;12.13;7.97;;;;;;;9.11;69.97;94654.84;5049543;28;20446;-62
2020/12/26 04:59:10;;;;;;;13.27;9.07;;;;;;;8.79;70.95;94663.75;5049324;28;20569;-62
2020/12/26 05:01:38;;;;;;;12.17;9.17;;;;;;;8.98;70.74;94663.09;5049689;28;20443;-64
2020/12/26 05:04:04;;;;;;;12.30;9.27;;;;;;;9.10;70.12;94655.88;5049649;28;20442;-61
2020/12/26 05:06:32;;;;;;;13.40;9.27;;;;;;;9.21;69.07;94675.03;5049367;28;20841;-62
2020/12/26 05:08:58;;;;;;;14.17;10.00;;;;;;;9.19;69.23;94672.69;5049479;28;20455;-61
2020/12/26 05:11:24;;;;;;;14.43;10.33;;;;;;;9.23;69.05;94665.88;5049386;28;20472;-62
2020/12/26 05:13:51;;;;;;;16.43;10.33;;;;;;;9.18;68.93;94665.84;5048907;28;20826;-63
2020/12/26 05:16:17;;;;;;;13.67;9.83;;;;;;;9.21;68.83;94669.81;5049807;28;20489;-65
2020/12/26 05:18:49;;;;;;;14.47;10.40;;;;;;;9.21;69.16;94667.97;5056434;28;20974;-63
2020/12/26 05:21:25;;;;;;;14.47;10.33;;;;;;;9.14;68.73;94649.09;5049873;28;20504;-62
2020/12/26 05:24:08;;;;;;;16.13;11.70;;;;;;;9.10;69.87;94666.31;5049050;28;20481;-61
2020/12/26 05:26:44;;;;;;;18.80;11.53;;;;;;;8.77;71.09;94660.59;5049189;28;20524;-62
2020/12/26 05:29:11;;;;;;;17.03;12.23;;;;;;;8.96;70.39;94672.22;5049015;28;20530;-62
2020/12/26 05:31:58;;;;;;;16.90;11.93;;;;;;;8.41;72.01;94663.94;5049693;28;20505;-62
2020/12/26 05:34:41;;;;;;;18.43;11.60;;;;;;;8.64;71.77;94640.13;5048481;28;20478;-61
2020/12/26 05:37:08;;;;;;;15.63;9.87;;;;;;;8.59;71.15;94671.41;5049048;28;20443;-62
2020/12/26 05:39:36;;;;;;;16.20;11.37;;;;;;;8.27;72.56;94639.25;5048881;28;20485;-62
2020/12/26 05:42:03;;;;;;;16.43;10.97;;;;;;;8.74;71.05;94658.50;5048860;28;20999;-62
2020/12/26 05:44:33;;;;;;;15.93;11.30;;;;;;;8.76;71.10;94678.09;5048756;28;20481;-64
2020/12/26 05:47:02;;;;;;;18.23;10.90;;;;;;;8.84;71.08;94669.00;5048942;28;20534;-63
2020/12/26 05:49:34;;;;;;;16.43;11.23;;;;;;;8.17;72.87;94684.31;5048885;28;20793;-64
2020/12/26 05:52:04;;;;;;;15.20;10.47;;;;;;;8.58;72.08;94681.06;5048935;28;20956;-63
2020/12/26 05:54:31;;;;;;;16.43;10.70;;;;;;;8.74;71.50;94688.00;5048532;28;20450;-64
2020/12/26 05:57:04;;;;;;;17.00;10.73;;;;;;;8.54;71.88;94700.88;5049079;28;20435;-61
2020/12/26 05:59:32;;;;;;;15.80;10.57;;;;;;;8.72;71.22;94671.00;5048767;28;20323;-61
2020/12/26 06:02:00;;;;;;;19.43;10.70;;;;;;;8.63;71.05;94670.66;5049465;28;20439;-62
2020/12/26 06:04:29;;;;;;;16.27;10.83;;;;;;;8.27;72.05;94678.41;5048935;28;20455;-64
2020/12/26 06:06:56;;;;;;;16.90;10.80;;;;;;;8.47;71.75;94674.16;5049122;28;20457;-63
2020/12/26 06:09:22;;;;;;;16.97;11.07;;;;;;;8.45;71.47;94691.13;5048839;28;20504;-62
2020/12/26 06:11:48;;;;;;;17.53;11.27;;;;;;;8.61;71.83;94690.25;5048978;28;20439;-64
2020/12/26 06:14:18;;;;;;;16.10;10.87;;;;;;;8.66;70.68;94683.25;5048222;28;20793;-63
2020/12/26 06:16:55;;;;;;;15.63;11.50;;;;;;;8.55;71.00;94710.28;5049491;28;20442;-63
2020/12/26 06:19:27;;;;;;;15.97;10.97;;;;;;;8.26;71.96;94703.75;5048967;28;20486;-62
2020/12/26 06:21:55;;;;;;;16.87;12.20;;;;;;;8.49;71.54;94703.44;5048754;28;20453;-63
2020/12/26 06:24:22;;;;;;;17.83;11.03;;;;;;;8.71;71.46;94719.06;5063637;28;21148;-62
2020/12/26 06:26:54;;;;;;;21.93;14.07;;;;;;;7.88;72.90;94722.06;5052721;28;20883;-63
2020/12/26 06:29:21;;;;;;;20.13;13.67;;;;;;;8.22;73.16;94694.78;5052349;28;20504;-63
2020/12/26 06:31:50;;;;;;;19.87;13.03;;;;;;;8.32;72.60;94734.06;5052586;28;20979;-63
2020/12/26 06:34:18;;;;;;;19.13;12.23;;;;;;;8.29;72.67;94718.91;5050339;28;20481;-63
2020/12/26 06:36:45;;;;;;;17.83;12.63;;;;;;;8.33;72.58;94703.53;5052709;28;20843;-63
2020/12/26 06:39:32;;;;;;;18.83;13.00;;;;;;;8.04;73.45;94736.84;5051952;28;21060;-63
2020/12/26 06:42:10;;;;;;;23.87;13.73;;;;;;;8.10;73.42;94721.00;5052448;28;20764;-62
2020/12/26 06:44:36;;;;;;;17.43;12.53;;;;;;;8.32;72.49;94715.78;5052165;28;20500;-64
2020/12/26 06:47:03;;;;;;;24.33;14.23;;;;;;;8.26;72.07;94729.84;5052304;28;20504;-64
2020/12/26 06:49:30;;;;;;;22.10;14.60;;;;;;;8.25;72.41;94702.16;5051966;28;20458;-61
2020/12/26 06:51:57;;;;;;;27.65;17.25;;;;;;;8.23;72.35;94689.31;5055934;28;20326;-63
2020/12/26 06:54:40;;;;;;;22.13;15.50;;;;;;;8.07;73.00;94741.56;5053020;28;20740;-63
2020/12/26 06:57:07;;;;;;;20.90;14.70;;;;;;;8.23;72.63;94693.75;5051937;28;20446;-62
2020/12/26 06:59:35;;;;;;;24.60;15.87;;;;;;;7.99;73.30;94727.13;5051675;28;20484;-63
2020/12/26 07:02:07;;;;;;;28.30;19.10;;;;;;;8.04;73.37;94732.44;5052120;28;20964;-62
2020/12/26 07:04:41;;;;;;;27.10;18.53;;;;;;;8.11;72.64;94747.91;5051098;28;20976;-62
2020/12/26 07:07:11;;;;;;;44.80;34.57;;;;;;;8.02;72.94;94739.72;5052390;28;20449;-62
2020/12/26 07:09:37;;;;;;;25.43;18.33;;;;;;;8.19;73.13;94726.59;5051723;28;20449;-64
2020/12/26 07:12:06;;;;;;;33.07;17.37;;;;;;;8.26;73.23;94714.19;5052090;28;20449;-63
2020/12/26 07:14:37;;;;;;;23.27;16.90;;;;;;;8.45;73.19;94707.56;5051295;28;20439;-60
2020/12/26 07:17:12;;;;;;;21.53;16.73;;;;;;;8.60;72.41;94705.13;5051221;28;20458;-62
2020/12/26 07:19:40;;;;;;;22.40;15.87;;;;;;;8.71;72.29;94712.00;5049700;28;20547;-61
2020/12/26 07:22:16;;;;;;;21.53;14.63;;;;;;;8.77;71.55;94705.81;5051753;28;20435;-68
2020/12/26 07:24:51;;;;;;;22.10;15.03;;;;;;;8.76;71.35;94688.53;5051272;28;20500;-68
2020/12/26 07:27:32;;;;;;;56.97;42.23;;;;;;;8.92;71.08;94711.13;5051291;28;20482;-62
2020/12/26 07:30:14;;;;;;;116.87;84.03;;;;;;;8.76;71.33;94719.09;5051089;28;20461;-62
2020/12/26 07:32:53;;;;;;;58.00;42.90;;;;;;;8.87;71.34;94715.53;5051895;28;20435;-63
2020/12/26 07:35:25;;;;;;;19.27;14.47;;;;;;;8.58;71.28;94735.91;5050692;28;20542;-64
2020/12/26 07:37:57;;;;;;;18.57;14.13;;;;;;;8.65;70.94;94726.03;5050557;28;20958;-64
2020/12/26 07:40:32;;;;;;;18.60;13.43;;;;;;;8.59;70.65;94723.66;5051278;28;20572;-63
2020/12/26 07:43:04;;;;;;;16.70;13.07;;;;;;;8.73;71.29;94730.84;5050845;28;20533;-63
2020/12/26 07:45:32;;;;;;;17.17;13.47;;;;;;;8.77;70.42;94710.22;5050883;28;20434;-63
2020/12/26 07:48:00;;;;;;;18.33;13.33;;;;;;;8.37;71.72;94722.91;5050980;28;20462;-64
2020/12/26 07:50:30;;;;;;;17.10;12.33;;;;;;;8.34;72.17;94695.44;5050661;28;20793;-63
2020/12/26 07:53:22;;;;;;;17.70;13.10;;;;;;;8.30;72.44;94720.50;5050945;28;20810;-63
2020/12/26 07:55:49;;;;;;;17.97;12.87;;;;;;;8.08;72.99;94727.53;5048172;28;20553;-64
2020/12/26 07:58:16;;;;;;;17.90;13.80;;;;;;;8.17;72.17;94697.34;5050555;28;20480;-63
2020/12/26 08:00:44;;;;;;;18.63;12.87;;;;;;;8.36;72.55;94737.00;5050360;28;20447;-63
2020/12/26 08:03:12;;;;;;;18.43;13.07;;;;;;;8.42;72.19;94708.06;5050954;28;20894;-63
2020/12/26 08:05:46;;;;;;;18.27;12.23;;;;;;;8.48;71.76;94707.09;5050114;28;20431;-63
2020/12/26 08:08:21;;;;;;;19.17;13.00;;;;;;;8.51;71.61;94727.50;5050757;28;20466;-62
2020/12/26 08:10:55;;;;;;;16.47;13.13;;;;;;;8.26;72.04;94688.06;5046232;28;20467;-64
2020/12/26 08:13:22;;;;;;;20.07;14.70;;;;;;;8.52;72.26;94705.53;5050205;28;20473;-65
2020/12/26 08:16:00;;;;;;;66.20;49.33;;;;;;;8.39;72.17;94745.13;5050369;28;20522;-63
2020/12/26 08:18:30;;;;;;;24.07;15.97;;;;;;;8.50;72.30;94709.47;5050447;28;20827;-65
2020/12/26 08:20:57;;;;;;;17.87;13.07;;;;;;;8.56;71.36;94726.75;5050384;28;20451;-64
2020/12/26 08:23:23;;;;;;;16.63;12.13;;;;;;;8.49;71.56;94706.06;5050224;28;20868;-64
2020/12/26 08:25:50;;;;;;;15.20;11.30;;;;;;;8.51;71.62;94722.25;5050558;28;20473;-64
2020/12/26 08:28:21;;;;;;;13.23;10.90;;;;;;;8.28;72.11;94734.81;5047539;28;20561;-66
2020/12/26 08:30:53;;;;;;;13.97;11.30;;;;;;;8.50;71.12;94702.41;5046042;28;20445;-66
2020/12/26 08:33:35;;;;;;;105.83;71.93;;;;;;;8.01;72.82;94722.47;5047718;28;20466;-65
2020/12/26 08:36:16;;;;;;;21.27;14.93;;;;;;;8.29;73.39;94733.75;5046316;28;20479;-66
2020/12/26 08:38:49;;;;;;;17.97;13.17;;;;;;;8.15;72.85;94733.34;5045851;28;20580;-67
2020/12/26 08:41:17;;;;;;;17.80;12.43;;;;;;;8.38;72.08;94678.25;5048647;28;20534;-64
2020/12/26 08:43:44;;;;;;;20.77;14.00;;;;;;;8.36;72.26;94729.94;5045375;28;20412;-66
2020/12/26 08:46:23;;;;;;;19.00;13.00;;;;;;;8.07;73.00;94742.38;5048411;28;20431;-65
2020/12/26 08:48:52;;;;;;;19.07;13.63;;;;;;;8.23;73.05;94730.28;5044934;28;20428;-64
2020/12/26 08:51:22;;;;;;;17.03;12.80;;;;;;;7.91;73.74;94748.44;5047764;28;20435;-65
2020/12/26 08:53:50;;;;;;;20.83;13.40;;;;;;;8.15;73.35;94728.13;5045089;28;20524;-65
2020/12/26 08:56:38;;;;;;;17.67;12.65;;;;;;;8.33;73.21;94738.25;5047566;28;20965;-63
2020/12/26 08:59:05;;;;;;;17.07;12.73;;;;;;;8.44;72.22;94726.91;5046481;28;20212;-65
2020/12/26 09:01:33;;;;;;;17.73;12.37;;;;;;;8.63;72.32;94715.06;5049024;28;20478;-63
2020/12/26 09:03:59;;;;;;;19.73;12.53;;;;;;;8.59;71.99;94697.53;5047037;28;20459;-65
2020/12/26 09:06:34;;;;;;;15.17;11.90;;;;;;;8.57;72.12;94695.19;5048561;28;20431;-64
2020/12/26 09:09:22;;;;;;;18.10;12.63;;;;;;;8.65;71.93;94707.00;5048382;28;20481;-62
2020/12/26 09:12:09;;;;;;;17.67;11.53;;;;;;;8.61;72.13;94696.22;5048260;28;20435;-62
2020/12/26 09:14:35;;;;;;;16.60;11.67;;;;;;;8.82;71.18;94692.78;5048022;28;20530;-65
2020/12/26 09:17:02;;;;;;;15.83;11.13;;;;;;;8.73;70.81;94709.16;5048751;28;20815;-63
2020/12/26 09:19:43;;;;;;;14.43;11.07;;;;;;;8.65;71.53;94718.22;5048741;28;20505;-63
2020/12/26 09:22:11;;;;;;;17.00;11.93;;;;;;;8.82;71.11;94702.44;5048738;28;20917;-64
2020/12/26 09:24:38;;;;;;;14.87;11.90;;;;;;;8.84;70.71;94710.81;5048014;28;20445;-63
2020/12/26 09:27:17;;;;;;;14.17;10.67;;;;;;;8.54;71.63;94702.72;5048415;28;20496;-63
2020/12/26 09:29:43;;;;;;;13.93;11.20;;;;;;;8.70;71.22;94673.09;5047729;28;20499;-63
2020/12/26 09:32:10;;;;;;;17.17;11.33;;;;;;;8.59;72.04;94690.50;5048495;28;20956;-63
2020/12/26 09:34:36;;;;;;;17.47;11.93;;;;;;;8.76;70.94;94682.50;5047696;28;20475;-63
2020/12/26 09:37:08;;;;;;;17.73;11.43;;;;;;;8.65;71.35;94705.16;5048157;28;20948;-65
2020/12/26 09:39:38;;;;;;;17.83;12.00;;;;;;;8.77;71.41;94684.09;5047608;28;20481;-65
2020/12/26 09:42:04;;;;;;;18.10;11.63;;;;;;;8.95;71.54;94679.28;5048673;28;20496;-68
2020/12/26 09:44:31;;;;;;;16.00;11.53;;;;;;;9.12;70.31;94677.31;5047851;28;20423;-64
2020/12/26 09:46:59;;;;;;;17.47;12.37;;;;;;;9.07;70.02;94698.19;5048655;28;20445;-66
2020/12/26 09:49:26;;;;;;;18.30;11.87;;;;;;;9.08;70.11;94686.72;5047850;28;20530;-67
2020/12/26 09:51:52;;;;;;;22.13;15.23;;;;;;;9.19;69.66;94690.97;5048446;28;20468;-65
2020/12/26 09:54:19;;;;;;;26.17;17.93;;;;;;;9.18;69.95;94697.22;5048088;28;20451;-64
2020/12/26 09:56:45;;;;;;;24.23;17.07;;;;;;;9.25;69.80;94664.88;5048269;28;20438;-66
2020/12/26 09:59:12;;;;;;;29.67;20.27;;;;;;;9.32;69.32;94684.53;5050596;28;20492;-68
2020/12/26 10:01:39;;;;;;;26.47;18.50;;;;;;;9.17;69.08;94674.75;5052460;28;20459;-66
2020/12/26 10:04:05;;;;;;;23.30;15.17;;;;;;;9.08;70.43;94678.06;5050672;28;20471;-64
2020/12/26 10:06:32;;;;;;;22.57;15.63;;;;;;;9.12;69.89;94687.78;5050933;28;20449;-66
2020/12/26 10:08:58;;;;;;;20.47;15.17;;;;;;;9.12;69.83;94645.94;5050421;28;20801;-65
2020/12/26 10:11:25;;;;;;;23.80;16.17;;;;;;;9.26;69.77;94708.25;5050414;28;20438;-67
2020/12/26 10:13:52;;;;;;;28.67;17.53;;;;;;;9.28;69.95;94670.38;5051320;28;20435;-63
2020/12/26 10:16:19;;;;;;;27.33;19.63;;;;;;;9.43;69.24;94662.63;5051060;28;20979;-65
2020/12/26 10:18:47;;;;;;;29.67;19.97;;;;;;;9.55;69.14;94680.72;5050466;28;20476;-65
2020/12/26 10:21:17;;;;;;;31.67;20.93;;;;;;;9.66;68.56;94662.22;5050591;28;20437;-64
2020/12/26 10:23:44;;;;;;;34.47;20.93;;;;;;;9.58;68.55;94660.06;5050224;28;20955;-64
2020/12/26 10:26:11;;;;;;;31.03;22.57;;;;;;;9.71;69.06;94669.28;5050078;28;20550;-65
2020/12/26 10:28:39;;;;;;;37.30;23.80;;;;;;;9.70;68.18;94657.25;5050290;28;20530;-64
2020/12/26 10:31:05;;;;;;;30.90;22.23;;;;;;;9.40;68.25;94668.34;5052101;28;20450;-65
2020/12/26 10:33:32;;;;;;;31.27;21.20;;;;;;;9.36;68.25;94641.13;5051454;28;20486;-64
2020/12/26 10:35:58;;;;;;;33.40;21.70;;;;;;;9.60;67.88;94672.91;5065176;28;20470;-64
2020/12/26 10:38:25;;;;;;;28.77;20.30;;;;;;;9.40;68.07;94667.56;5051218;28;20572;-65
2020/12/26 10:40:52;;;;;;;35.77;21.83;;;;;;;9.48;68.70;94659.22;5051166;28;20439;-64
2020/12/26 10:43:18;;;;;;;33.47;21.10;;;;;;;9.50;68.81;94667.63;5051042;28;20445;-65
2020/12/26 10:45:45;;;;;;;33.90;23.17;;;;;;;9.61;68.02;94674.47;5051086;28;20458;-65
2020/12/26 10:48:11;;;;;;;36.00;23.43;;;;;;;9.58;69.54;94675.00;5051283;28;20471;-64
2020/12/26 10:50:38;;;;;;;38.40;23.57;;;;;;;9.81;68.93;94666.72;5050948;28;20466;-66
2020/12/26 10:53:04;;;;;;;62.97;39.13;;;;;;;9.83;67.30;94662.81;5051499;28;20433;-64
2020/12/26 10:55:30;;;;;;;38.60;25.57;;;;;;;9.65;66.77;94665.09;5050862;28;20438;-63
2020/12/26 10:57:57;;;;;;;41.07;25.63;;;;;;;9.72;66.37;94668.25;5051481;28;20504;-65
2020/12/26 11:00:24;;;;;;;37.23;24.00;;;;;;;9.74;66.95;94677.44;5050858;28;20544;-64
2020/12/26 11:02:50;;;;;;;34.27;22.60;;;;;;;9.67;66.47;94668.25;5050961;28;20478;-63
2020/12/26 11:05:16;;;;;;;42.03;23.80;;;;;;;9.62;67.10;94668.19;5050659;28;20435;-64
2020/12/26 11:07:43;;;;;;;36.77;24.17;;;;;;;9.59;66.78;94676.56;5051807;28;20965;-63
2020/12/26 11:10:09;;;;;;;33.13;22.50;;;;;;;9.42;67.14;94670.69;5050918;28;20829;-64
2020/12/26 11:12:37;;;;;;;32.93;22.13;;;;;;;9.45;67.51;94670.22;5049926;28;20427;-63
2020/12/26 11:15:04;;;;;;;33.10;22.70;;;;;;;9.48;67.29;94685.38;5050362;28;20443;-64
2020/12/26 11:17:30;;;;;;;30.07;20.17;;;;;;;9.35;66.75;94704.94;5051232;28;20427;-64
2020/12/26 11:19:56;;;;;;;32.27;20.13;;;;;;;9.30;67.43;94698.88;5050649;28;20493;-64
2020/12/26 11:22:24;;;;;;;27.97;19.10;;;;;;;9.54;67.01;94668.69;5049805;28;20493;-64
2020/12/26 11:24:51;;;;;;;26.70;19.10;;;;;;;9.54;66.89;94679.16;5048497;28;20451;-64
2020/12/26 11:27:17;;;;;;;30.30;20.43;;;;;;;9.49;66.21;94671.28;5049189;28;20423;-64
2020/12/26 11:29:43;;;;;;;30.13;19.00;;;;;;;9.42;66.61;94670.69;5046110;28;20458;-64
2020/12/26 11:32:12;;;;;;;30.03;20.67;;;;;;;9.63;67.02;94667.16;5050265;28;20434;-64
2020/12/26 11:34:38;;;;;;;38.23;20.33;;;;;;;9.60;66.48;94657.97;5052442;28;20454;-65
2020/12/26 11:37:05;;;;;;;32.50;20.70;;;;;;;9.74;66.92;94642.63;5049301;28;21086;-64